createdAt,value
2022-09-20T00:01:37.889Z,72.71
2022-09-20T00:04:14.382Z,72.93
2022-09-20T00:06:46.836Z,73.05
2022-09-20T00:09:14.867Z,72.96
2022-09-20T00:11:42.604Z,73.02
2022-09-20T00:14:10.464Z,73.04
2022-09-20T00:16:40.672Z,73.89
2022-09-20T00:19:09.163Z,73.62
2022-09-20T00:21:38.134Z,74.03
2022-09-20T00:24:06.331Z,74.40
2022-09-20T00:26:34.350Z,74.33
2022-09-20T00:29:02.222Z,74.07
2022-09-20T00:31:30.011Z,73.88
2022-09-20T00:34:19.103Z,73.88
2022-09-20T00:36:46.868Z,73.71
2022-09-20T00:39:16.322Z,73.62
2022-09-20T00:41:45.310Z,73.58
2022-09-20T00:44:47.866Z,73.33
2022-09-20T00:47:36.953Z,73.29
2022-09-20T00:50:12.927Z,73.20
2022-09-20T00:52:45.897Z,73.17
2022-09-20T00:55:15.596Z,73.06
2022-09-20T00:57:45.033Z,73.37
2022-09-20T01:00:14.491Z,73.03
2022-09-20T01:02:48.165Z,73.20
2022-09-20T01:05:18.810Z,73.25
2022-09-20T01:07:48.699Z,73.24
2022-09-20T01:10:16.752Z,73.31
2022-09-20T01:12:46.265Z,73.41
2022-09-20T01:15:15.931Z,73.43
2022-09-20T01:17:48.482Z,73.22
2022-09-20T01:20:18.569Z,73.27
2022-09-20T01:22:55.136Z,73.12
2022-09-20T01:25:49.726Z,73.07
2022-09-20T01:28:18.434Z,73.05
2022-09-20T01:31:01.120Z,73.05
2022-09-20T01:33:40.463Z,73.04
2022-09-20T01:36:14.243Z,73.09
2022-09-20T01:39:12.570Z,73.23
2022-09-20T01:41:49.084Z,72.98
2022-09-20T01:44:36.203Z,73.13
2022-09-20T01:47:29.875Z,73.11
2022-09-20T01:50:25.186Z,73.14
2022-09-20T01:53:29.392Z,73.08
2022-09-20T01:56:18.163Z,73.07
2022-09-20T01:59:23.681Z,72.99
2022-09-20T02:02:03.963Z,73.46
2022-09-20T02:04:43.829Z,73.12
2022-09-20T02:07:14.331Z,73.28
2022-09-20T02:09:55.131Z,73.13
2022-09-20T02:12:39.812Z,73.09
2022-09-20T02:15:34.498Z,73.07
2022-09-20T02:18:34.435Z,73.15
2022-09-20T02:21:52.075Z,72.90
2022-09-20T02:24:29.498Z,72.96
2022-09-20T02:27:37.029Z,72.79
2022-09-20T02:53:38.528Z,72.72
2022-09-20T02:56:12.243Z,72.77
2022-09-20T02:59:21.021Z,72.64
2022-09-20T03:02:44.260Z,72.44
2022-09-20T03:05:55.688Z,72.52
2022-09-20T03:15:07.589Z,72.56
2022-09-20T03:18:08.265Z,72.39
2022-09-20T03:20:52.413Z,72.24
2022-09-20T03:23:29.854Z,72.74
2022-09-20T03:26:21.762Z,72.60
2022-09-20T03:29:13.226Z,72.44
2022-09-20T03:31:55.095Z,72.42
2022-09-20T03:34:25.682Z,72.33
2022-09-20T03:37:17.855Z,72.19
2022-09-20T03:40:27.127Z,72.43
2022-09-20T03:43:05.989Z,72.16
2022-09-20T03:46:00.762Z,72.20
2022-09-20T03:48:55.811Z,72.07
2022-09-20T03:51:35.654Z,71.81
2022-09-20T03:54:24.457Z,71.83
2022-09-20T03:57:28.847Z,71.34
2022-09-20T04:00:21.602Z,71.69
2022-09-20T04:03:14.200Z,71.62
2022-09-20T04:06:18.096Z,71.37
2022-09-20T04:09:14.000Z,71.65
2022-09-20T04:11:57.699Z,71.73
2022-09-20T04:14:51.677Z,71.49
2022-09-20T04:17:40.846Z,71.52
2022-09-20T04:20:53.629Z,71.91
2022-09-20T04:23:44.789Z,71.56
2022-09-20T04:26:15.907Z,71.51
2022-09-20T04:28:48.938Z,71.30
2022-09-20T04:31:33.760Z,71.83
2022-09-20T04:34:04.160Z,72.00
2022-09-20T04:37:02.984Z,72.12
2022-09-20T04:39:56.265Z,71.80
2022-09-20T04:42:52.048Z,71.40
2022-09-20T04:46:18.707Z,71.13
2022-09-20T04:49:35.678Z,71.18
2022-09-20T04:52:06.654Z,71.07
2022-09-20T04:55:12.985Z,70.67
2022-09-20T04:58:09.085Z,70.45
2022-09-20T05:01:02.827Z,70.52
2022-09-20T05:04:04.118Z,70.61
2022-09-20T05:06:44.179Z,70.66
2022-09-20T05:09:30.440Z,70.68
2022-09-20T05:12:26.205Z,70.25
2022-09-20T05:15:34.366Z,70.28
2022-09-20T05:18:35.916Z,70.61
2022-09-20T05:21:15.762Z,70.67
2022-09-20T05:24:01.207Z,70.32
2022-09-20T05:27:25.840Z,70.10
2022-09-20T05:30:04.847Z,70.85
2022-09-20T05:32:36.298Z,70.66
2022-09-20T05:35:32.980Z,70.42
2022-09-20T05:38:16.821Z,70.69
2022-09-20T05:41:00.448Z,70.47
2022-09-20T05:56:21.575Z,69.72
2022-09-20T05:59:11.953Z,69.03
2022-09-20T06:02:02.730Z,68.96
2022-09-20T06:04:42.156Z,69.09
2022-09-20T06:07:21.015Z,69.41
2022-09-20T06:10:47.666Z,69.14
2022-09-20T06:13:22.797Z,68.98
2022-09-20T06:16:04.697Z,68.28
2022-09-20T06:18:48.050Z,68.95
2022-09-20T06:21:41.087Z,68.84
2022-09-20T06:24:22.726Z,68.18
2022-09-20T06:26:55.584Z,67.84
2022-09-20T06:29:31.288Z,67.66
2022-09-20T06:31:59.175Z,67.50
2022-09-20T06:34:28.898Z,67.63
2022-09-20T06:37:56.638Z,67.28
2022-09-20T06:40:59.291Z,67.28
2022-09-20T06:43:28.016Z,67.29
2022-09-20T06:45:55.644Z,67.14
2022-09-20T06:48:25.408Z,67.10
2022-09-20T06:50:53.208Z,66.73
2022-09-20T06:53:29.623Z,66.23
2022-09-20T06:55:58.087Z,66.09
2022-09-20T06:58:26.944Z,66.17
2022-09-20T07:00:54.958Z,66.63
2022-09-20T07:03:22.676Z,66.72
2022-09-20T07:05:50.664Z,66.59
2022-09-20T07:08:18.337Z,66.75
2022-09-20T07:10:46.349Z,66.92
2022-09-20T07:13:14.134Z,67.33
2022-09-20T07:15:41.876Z,67.36
2022-09-20T07:18:09.822Z,67.39
2022-09-20T07:20:37.599Z,67.37
2022-09-20T07:23:05.283Z,67.38
2022-09-20T07:25:33.253Z,67.28
2022-09-20T07:28:01.089Z,66.62
2022-09-20T07:30:28.974Z,66.15
2022-09-20T07:32:56.747Z,66.43
2022-09-20T07:35:24.496Z,66.13
2022-09-20T07:37:57.984Z,65.40
2022-09-20T07:40:26.681Z,65.21
2022-09-20T07:42:57.851Z,65.13
2022-09-20T07:45:26.012Z,65.76
2022-09-20T07:47:54.891Z,65.90
2022-09-20T07:50:22.729Z,65.88
2022-09-20T07:52:51.529Z,66.40
2022-09-20T07:55:19.546Z,66.45
2022-09-20T07:57:47.336Z,66.39
2022-09-20T08:00:15.612Z,65.93
2022-09-20T08:02:45.210Z,65.45
2022-09-20T08:05:12.998Z,65.22
2022-09-20T08:07:40.694Z,64.88
2022-09-20T08:10:08.761Z,65.38
2022-09-20T08:15:26.093Z,64.61
2022-09-20T08:17:53.858Z,64.50
2022-09-20T08:20:21.684Z,63.88
2022-09-20T08:23:06.227Z,64.42
2022-09-20T08:25:38.543Z,64.06
2022-09-20T08:28:06.218Z,64.06
2022-09-20T08:30:33.923Z,63.73
2022-09-20T08:33:04.197Z,63.39
2022-09-20T08:35:31.920Z,62.80
2022-09-20T08:39:57.183Z,63.38
2022-09-20T08:40:49.648Z,63.16
2022-09-20T08:43:22.429Z,63.28
2022-09-20T08:45:50.647Z,62.93
2022-09-20T08:48:22.025Z,62.97
2022-09-20T08:50:50.163Z,62.82
2022-09-20T08:53:21.285Z,62.74
2022-09-20T08:55:49.374Z,62.98
2022-09-20T08:58:17.124Z,62.75
2022-09-20T09:00:47.210Z,63.59
2022-09-20T09:03:18.116Z,64.79
2022-09-20T09:05:52.027Z,64.98
2022-09-20T09:08:24.369Z,65.65
2022-09-20T09:10:57.961Z,65.79
2022-09-20T09:13:37.385Z,65.96
2022-09-20T09:16:33.725Z,66.10
2022-09-20T09:19:36.308Z,65.69
2022-09-20T09:22:05.862Z,65.88
2022-09-20T09:24:33.709Z,66.04
2022-09-20T09:27:16.632Z,65.97
2022-09-20T09:29:53.257Z,65.33
2022-09-20T09:32:29.852Z,65.57
2022-09-20T09:35:30.282Z,65.44
2022-09-20T09:38:01.139Z,65.37
2022-09-20T09:40:31.834Z,65.37
2022-09-20T09:43:04.384Z,65.09
2022-09-20T09:45:36.445Z,65.27
2022-09-20T09:48:30.820Z,64.65
2022-09-20T09:51:19.524Z,64.81
2022-09-20T09:53:51.558Z,64.95
2022-09-20T09:56:57.458Z,64.74
2022-09-20T09:59:55.398Z,63.90
2022-09-20T10:02:41.248Z,63.58
2022-09-20T10:05:15.548Z,63.11
2022-09-20T10:07:55.263Z,62.62
2022-09-20T10:10:45.448Z,62.08
2022-09-20T10:13:44.253Z,61.71
2022-09-20T10:16:35.196Z,61.18
2022-09-20T10:19:24.909Z,61.16
2022-09-20T10:21:52.659Z,60.54
2022-09-20T10:24:51.013Z,59.25
2022-09-20T10:27:56.663Z,59.51
2022-09-20T10:30:31.813Z,59.28
2022-09-20T10:33:30.446Z,58.60
2022-09-20T10:36:24.331Z,58.67
2022-09-20T10:39:06.182Z,58.62
2022-09-20T10:42:17.619Z,58.83
2022-09-20T10:44:46.620Z,58.78
2022-09-20T10:47:20.442Z,58.24
2022-09-20T10:50:19.203Z,58.74
2022-09-20T10:52:53.402Z,58.80
2022-09-20T10:55:36.212Z,57.97
2022-09-20T10:58:31.934Z,58.56
2022-09-20T11:01:10.020Z,58.48
2022-09-20T11:04:05.947Z,57.92
2022-09-20T11:07:03.196Z,57.50
2022-09-20T11:09:38.408Z,57.33
2022-09-20T11:12:23.953Z,56.72
2022-09-20T11:15:02.872Z,56.48
2022-09-20T11:17:39.015Z,56.30
2022-09-20T11:20:19.132Z,55.03
2022-09-20T11:22:55.516Z,54.34
2022-09-20T11:25:32.197Z,54.68
2022-09-20T11:28:22.417Z,53.91
2022-09-20T11:31:08.572Z,53.79
2022-09-20T11:33:58.004Z,53.65
2022-09-20T11:36:57.561Z,53.36
2022-09-20T11:39:51.460Z,54.52
2022-09-20T11:42:23.612Z,54.52
2022-09-20T11:44:52.085Z,54.11
2022-09-20T11:47:53.200Z,54.29
2022-09-20T11:51:04.265Z,54.45
2022-09-20T11:53:53.446Z,55.17
2022-09-20T11:56:25.455Z,54.72
2022-09-20T11:58:56.243Z,54.32
2022-09-20T12:01:35.323Z,54.40
2022-09-20T12:04:32.219Z,54.54
2022-09-20T12:07:08.936Z,54.35
2022-09-20T12:09:42.885Z,54.66
2022-09-20T12:12:27.586Z,54.82
2022-09-20T12:14:57.699Z,54.71
2022-09-20T12:17:47.415Z,54.65
2022-09-20T12:20:45.150Z,54.80
2022-09-20T12:23:40.867Z,53.83
2022-09-20T12:26:14.340Z,53.25
2022-09-20T12:28:45.566Z,52.81
2022-09-20T12:31:21.792Z,52.89
2022-09-20T12:34:12.465Z,52.64
2022-09-20T12:36:44.714Z,52.73
2022-09-20T12:39:13.611Z,52.74
2022-09-20T12:41:58.756Z,51.07
2022-09-20T12:44:40.540Z,51.79
2022-09-20T12:47:08.751Z,52.45
2022-09-20T12:50:06.757Z,52.46
2022-09-20T12:52:58.856Z,52.44
2022-09-20T12:55:27.279Z,52.57
2022-09-20T12:57:58.756Z,51.90
2022-09-20T13:00:34.705Z,51.74
2022-09-20T13:03:29.544Z,50.83
2022-09-20T13:06:06.838Z,51.15
2022-09-20T13:08:55.797Z,51.10
2022-09-20T13:11:28.278Z,51.00
2022-09-20T13:14:04.939Z,51.13
2022-09-20T13:16:51.682Z,50.54
2022-09-20T13:19:29.467Z,50.97
2022-09-20T13:21:58.802Z,51.30
2022-09-20T13:24:37.868Z,51.49
2022-09-20T13:27:09.764Z,52.04
2022-09-20T13:29:45.164Z,52.64
2022-09-20T13:32:30.736Z,52.09
2022-09-20T13:35:10.896Z,52.51
2022-09-20T13:37:46.003Z,53.68
2022-09-20T13:40:36.873Z,54.24
2022-09-20T13:43:23.253Z,54.77
2022-09-20T13:45:56.669Z,57.28
2022-09-20T13:48:26.777Z,59.60
2022-09-20T13:50:55.648Z,61.63
2022-09-20T13:53:48.721Z,63.06
2022-09-20T13:56:30.203Z,63.99
2022-09-20T13:59:05.388Z,64.03
2022-09-20T14:01:35.872Z,63.45
2022-09-20T14:04:10.636Z,63.85
2022-09-20T14:06:40.845Z,63.13
2022-09-20T14:09:37.165Z,62.48
2022-09-20T14:12:07.282Z,62.09
2022-09-20T14:14:36.525Z,61.92
2022-09-20T14:17:09.091Z,62.01
2022-09-20T14:19:41.595Z,62.79
2022-09-20T14:22:19.489Z,62.70
2022-09-20T14:25:18.866Z,63.08
2022-09-20T14:27:46.769Z,62.85
2022-09-20T14:30:36.425Z,63.10
2022-09-20T14:33:07.376Z,62.08
2022-09-20T14:35:35.076Z,60.72
2022-09-20T14:38:08.822Z,59.65
2022-09-20T14:40:45.837Z,59.67
2022-09-20T14:43:21.995Z,59.26
2022-09-20T14:45:55.937Z,58.90
2022-09-20T14:48:23.795Z,58.95
2022-09-20T14:51:23.293Z,59.69
2022-09-20T14:54:22.584Z,59.56
2022-09-20T14:56:53.142Z,59.18
2022-09-20T14:59:25.665Z,58.95
2022-09-20T15:02:17.233Z,58.62
2022-09-20T15:05:37.933Z,58.26
2022-09-20T15:08:15.807Z,59.82
2022-09-20T15:10:44.322Z,60.02
2022-09-20T15:13:12.133Z,60.43
2022-09-20T15:15:40.022Z,60.90
2022-09-20T15:18:27.396Z,61.34
2022-09-20T15:20:55.717Z,61.88
2022-09-20T15:23:23.551Z,62.27
2022-09-20T15:25:53.050Z,62.64
2022-09-20T15:28:21.170Z,63.41
2022-09-20T15:31:00.133Z,63.42
2022-09-20T15:33:32.472Z,63.12
2022-09-20T15:36:02.761Z,63.67
2022-09-20T15:38:30.790Z,63.23
2022-09-20T15:41:01.664Z,64.21
2022-09-20T15:43:31.165Z,64.94
2022-09-20T15:46:01.254Z,65.27
2022-09-20T15:48:31.584Z,65.50
2022-09-20T15:51:09.075Z,65.82
2022-09-20T15:53:43.430Z,65.37
2022-09-20T15:56:17.145Z,65.64
2022-09-20T15:58:59.534Z,65.23
2022-09-20T16:01:33.027Z,65.47
2022-09-20T16:04:04.567Z,65.49
2022-09-20T16:06:33.131Z,65.62
2022-09-20T16:09:00.685Z,65.57
2022-09-20T16:11:28.452Z,65.43
2022-09-20T16:13:57.938Z,65.66
2022-09-20T16:16:27.372Z,65.91
2022-09-20T16:19:14.331Z,66.31
2022-09-20T16:21:43.876Z,66.13
2022-09-20T16:24:14.785Z,66.29
2022-09-20T16:27:34.360Z,67.14
2022-09-20T16:30:03.644Z,67.28
2022-09-20T16:32:31.356Z,67.65
2022-09-20T16:35:01.337Z,68.15
2022-09-20T16:37:32.989Z,68.20
2022-09-20T16:40:02.155Z,68.01
2022-09-20T16:42:58.801Z,67.93
2022-09-20T16:45:27.685Z,67.76
2022-09-20T16:47:58.195Z,67.81
2022-09-20T16:50:25.861Z,67.05
2022-09-20T16:52:53.456Z,67.05
2022-09-20T16:55:46.498Z,66.36
2022-09-20T16:58:15.689Z,66.50
2022-09-20T17:00:43.472Z,66.65
2022-09-20T17:03:12.406Z,66.93
2022-09-20T17:05:44.874Z,66.83
2022-09-20T17:08:15.134Z,67.01
2022-09-20T17:10:43.039Z,67.55
2022-09-20T17:13:10.991Z,67.67
2022-09-20T17:15:39.006Z,67.42
2022-09-20T17:18:08.798Z,67.15
2022-09-20T17:20:41.934Z,67.19
2022-09-20T17:23:35.772Z,67.72
2022-09-20T17:26:32.463Z,67.85
2022-09-20T17:29:25.600Z,67.31
2022-09-20T17:31:55.996Z,67.29
2022-09-20T17:34:28.150Z,67.13
2022-09-20T17:36:55.904Z,67.03
2022-09-20T17:39:23.996Z,67.08
2022-09-20T17:41:51.995Z,67.14
2022-09-20T17:44:19.683Z,66.93
2022-09-20T17:46:50.126Z,66.84
2022-09-20T17:49:23.222Z,66.87
2022-09-20T17:51:53.497Z,67.01
2022-09-20T17:54:22.357Z,66.93
2022-09-20T17:56:52.441Z,66.98
2022-09-20T17:59:20.771Z,67.34
2022-09-20T18:01:51.152Z,67.16
2022-09-20T18:04:21.089Z,67.25
2022-09-20T18:06:51.882Z,67.54
2022-09-20T18:09:25.153Z,67.77
2022-09-20T18:11:55.952Z,67.83
2022-09-20T18:14:30.313Z,67.82
2022-09-20T18:17:01.389Z,67.63
2022-09-20T18:19:34.110Z,67.48
2022-09-20T18:22:03.517Z,67.63
2022-09-20T18:24:34.845Z,67.69
2022-09-20T18:27:04.089Z,67.67
2022-09-20T18:29:36.840Z,67.52
2022-09-20T18:32:04.809Z,67.63
2022-09-20T18:34:34.356Z,67.72
2022-09-20T18:37:03.962Z,67.84
2022-09-20T18:39:33.844Z,67.75
2022-09-20T18:42:02.766Z,67.75
2022-09-20T18:44:33.778Z,67.46
2022-09-20T18:47:04.004Z,67.54
2022-09-20T18:49:32.298Z,67.63
2022-09-20T18:52:25.676Z,67.78
2022-09-20T18:54:56.056Z,67.67
2022-09-20T18:57:24.127Z,67.66
2022-09-20T19:00:03.146Z,67.99
2022-09-20T19:03:16.243Z,67.64
2022-09-20T19:05:51.403Z,67.37
2022-09-20T19:08:36.540Z,67.92
2022-09-20T19:11:12.925Z,67.84
2022-09-20T19:13:54.791Z,67.79
2022-09-20T19:16:30.815Z,67.93
2022-09-20T19:19:14.315Z,67.92
2022-09-20T19:21:58.728Z,68.21
2022-09-20T19:24:55.917Z,68.35
2022-09-20T19:27:25.625Z,68.77
2022-09-20T19:29:54.588Z,68.75
2022-09-20T19:32:26.368Z,68.67
2022-09-20T19:35:01.876Z,68.74
2022-09-20T19:37:32.363Z,68.52
2022-09-20T19:40:12.294Z,68.57
2022-09-20T19:42:53.271Z,68.25
2022-09-20T19:45:34.172Z,68.40
2022-09-20T19:48:50.615Z,68.38
2022-09-20T19:51:18.810Z,68.29
2022-09-20T19:53:47.029Z,68.27
2022-09-20T19:56:14.836Z,68.29
2022-09-20T19:58:44.672Z,68.23
2022-09-20T20:01:13.132Z,68.01
2022-09-20T20:03:43.615Z,67.98
2022-09-20T20:06:58.355Z,67.91
2022-09-20T20:09:37.830Z,67.87
2022-09-20T20:12:16.883Z,68.17
2022-09-20T20:15:22.245Z,68.10
2022-09-20T20:18:02.031Z,68.53
2022-09-20T20:20:34.241Z,68.35
2022-09-20T20:23:23.739Z,68.47
2022-09-20T20:26:26.531Z,68.57
2022-09-20T20:28:54.500Z,68.56
2022-09-20T20:31:23.217Z,68.51
2022-09-20T20:33:52.574Z,68.96
2022-09-20T20:36:21.396Z,68.99
2022-09-20T20:38:53.445Z,69.22
2022-09-20T20:41:22.091Z,69.12
2022-09-20T20:43:57.301Z,69.10
2022-09-20T20:46:26.165Z,69.13
2022-09-20T20:48:54.187Z,69.12
2022-09-20T20:51:23.091Z,69.28
2022-09-20T20:53:52.992Z,69.16
2022-09-20T20:56:28.939Z,69.29
2022-09-20T20:59:47.678Z,69.45
2022-09-20T21:03:00.038Z,69.68
2022-09-20T21:05:32.897Z,69.71
2022-09-20T21:11:44.888Z,69.72
2022-09-20T21:15:02.038Z,70.00
2022-09-20T21:17:51.436Z,69.73
2022-09-20T21:20:21.775Z,70.01
2022-09-20T21:22:49.516Z,69.81
2022-09-20T21:25:17.674Z,69.80
2022-09-20T21:27:45.473Z,69.97
2022-09-20T21:30:13.925Z,70.10
2022-09-20T21:32:42.395Z,70.09
2022-09-20T21:35:10.417Z,70.27
2022-09-20T21:37:41.116Z,70.25
2022-09-20T21:40:10.156Z,70.30
2022-09-20T21:42:37.976Z,70.43
2022-09-20T21:45:09.584Z,70.65
2022-09-20T21:47:37.430Z,70.88
2022-09-20T21:50:05.491Z,71.05
2022-09-20T21:52:33.307Z,70.93
2022-09-20T21:55:01.067Z,70.92
2022-09-20T21:57:29.018Z,70.93
2022-09-20T21:59:56.750Z,71.06
2022-09-20T22:02:24.486Z,70.89
2022-09-20T22:04:52.312Z,70.89
2022-09-20T22:07:20.102Z,70.71
2022-09-20T22:09:47.994Z,70.99
2022-09-20T22:12:15.755Z,71.18
2022-09-20T22:14:44.631Z,71.24
2022-09-20T22:17:12.295Z,71.08
2022-09-20T22:19:40.178Z,71.45
2022-09-20T22:22:08.719Z,71.32
2022-09-20T22:24:36.557Z,71.22
2022-09-20T22:27:04.446Z,71.58
2022-09-20T22:29:32.116Z,71.74
2022-09-20T22:31:59.901Z,71.58
2022-09-20T22:34:27.655Z,71.48
2022-09-20T22:36:55.471Z,71.49
2022-09-20T22:39:23.245Z,71.29
2022-09-20T22:41:51.627Z,71.13
2022-09-20T22:44:19.375Z,71.24
2022-09-20T22:46:47.135Z,71.46
2022-09-20T22:49:14.981Z,71.58
2022-09-20T22:51:44.451Z,71.80
2022-09-20T22:54:13.043Z,71.66
2022-09-20T22:56:44.385Z,71.70
2022-09-20T22:59:13.963Z,71.79
2022-09-20T23:01:44.117Z,71.65
2022-09-20T23:04:14.499Z,72.06
2022-09-20T23:06:49.482Z,72.24
2022-09-20T23:09:18.662Z,72.27
2022-09-20T23:11:46.927Z,72.26
2022-09-20T23:14:19.720Z,72.04
2022-09-20T23:16:48.390Z,71.99
2022-09-20T23:19:16.939Z,72.15
2022-09-20T23:21:45.165Z,72.50
2022-09-20T23:24:14.761Z,72.43
2022-09-20T23:26:43.924Z,72.48
2022-09-20T23:29:14.312Z,72.29
2022-09-20T23:31:46.037Z,72.23
2022-09-20T23:34:16.204Z,72.16
2022-09-20T23:36:44.802Z,72.33
2022-09-20T23:39:13.217Z,72.26
2022-09-20T23:41:41.850Z,72.34
2022-09-20T23:44:11.610Z,72.14
2022-09-20T23:46:39.722Z,72.15
2022-09-20T23:49:09.378Z,72.00
2022-09-20T23:51:37.554Z,72.40
2022-09-20T23:54:05.820Z,72.23
2022-09-20T23:56:33.959Z,72.33
2022-09-20T23:59:01.620Z,72.00
